sensor_id;sensor_type;location;lat;lon;timestamp;P1;durP1;ratioP1;P2;durP2;ratioP2
45356;SDS011;31092;51.924;21.448;2022-10-31T00:01:24;3.85;;;2.10;;
45356;SDS011;31092;51.924;21.448;2022-10-31T00:03:51;4.20;;;2.30;;
45356;SDS011;31092;51.924;21.448;2022-10-31T00:06:17;4.20;;;2.80;;
45356;SDS011;31092;51.924;21.448;2022-10-31T00:08:44;5.68;;;3.47;;
45356;SDS011;31092;51.924;21.448;2022-10-31T00:11:10;8.18;;;2.97;;
45356;SDS011;31092;51.924;21.448;2022-10-31T00:13:36;3.88;;;2.15;;
45356;SDS011;31092;51.924;21.448;2022-10-31T00:16:01;8.02;;;3.00;;
45356;SDS011;31092;51.924;21.448;2022-10-31T00:18:27;5.68;;;2.42;;
45356;SDS011;31092;51.924;21.448;2022-10-31T00:21:02;5.60;;;2.22;;
45356;SDS011;31092;51.924;21.448;2022-10-31T00:23:28;4.82;;;2.60;;
45356;SDS011;31092;51.924;21.448;2022-10-31T00:25:54;4.82;;;1.88;;
45356;SDS011;31092;51.924;21.448;2022-10-31T00:28:25;6.18;;;2.60;;
45356;SDS011;31092;51.924;21.448;2022-10-31T00:30:51;4.10;;;2.28;;
45356;SDS011;31092;51.924;21.448;2022-10-31T00:33:16;4.20;;;2.08;;
45356;SDS011;31092;51.924;21.448;2022-10-31T00:35:42;6.93;;;3.08;;
45356;SDS011;31092;51.924;21.448;2022-10-31T00:38:07;4.93;;;3.15;;
45356;SDS011;31092;51.924;21.448;2022-10-31T00:40:32;9.63;;;3.22;;
45356;SDS011;31092;51.924;21.448;2022-10-31T00:42:58;7.45;;;3.20;;
45356;SDS011;31092;51.924;21.448;2022-10-31T00:45:23;5.95;;;2.58;;
45356;SDS011;31092;51.924;21.448;2022-10-31T00:47:49;3.42;;;2.38;;
45356;SDS011;31092;51.924;21.448;2022-10-31T00:50:15;3.63;;;2.28;;
45356;SDS011;31092;51.924;21.448;2022-10-31T00:52:40;4.68;;;2.15;;
45356;SDS011;31092;51.924;21.448;2022-10-31T00:55:06;9.35;;;2.40;;
45356;SDS011;31092;51.924;21.448;2022-10-31T00:57:31;3.60;;;2.20;;
45356;SDS011;31092;51.924;21.448;2022-10-31T00:59:57;4.07;;;1.80;;
45356;SDS011;31092;51.924;21.448;2022-10-31T01:02:22;5.00;;;2.42;;
45356;SDS011;31092;51.924;21.448;2022-10-31T01:04:48;2.47;;;1.95;;
45356;SDS011;31092;51.924;21.448;2022-10-31T01:07:13;3.55;;;1.40;;
45356;SDS011;31092;51.924;21.448;2022-10-31T01:09:39;2.33;;;2.13;;
45356;SDS011;31092;51.924;21.448;2022-10-31T01:12:05;3.65;;;2.25;;
45356;SDS011;31092;51.924;21.448;2022-10-31T01:14:30;2.35;;;1.63;;
45356;SDS011;31092;51.924;21.448;2022-10-31T01:16:56;2.85;;;1.33;;
45356;SDS011;31092;51.924;21.448;2022-10-31T01:19:21;3.05;;;1.80;;
45356;SDS011;31092;51.924;21.448;2022-10-31T01:21:47;4.35;;;2.10;;
45356;SDS011;31092;51.924;21.448;2022-10-31T01:24:12;6.85;;;4.05;;
45356;SDS011;31092;51.924;21.448;2022-10-31T01:26:38;2.95;;;1.90;;
45356;SDS011;31092;51.924;21.448;2022-10-31T01:29:04;3.47;;;1.70;;
45356;SDS011;31092;51.924;21.448;2022-10-31T01:31:33;4.30;;;2.20;;
45356;SDS011;31092;51.924;21.448;2022-10-31T01:34:00;4.03;;;2.45;;
45356;SDS011;31092;51.924;21.448;2022-10-31T01:36:27;1.88;;;1.50;;
45356;SDS011;31092;51.924;21.448;2022-10-31T01:39:01;3.17;;;2.25;;
45356;SDS011;31092;51.924;21.448;2022-10-31T01:41:29;4.50;;;2.30;;
45356;SDS011;31092;51.924;21.448;2022-10-31T01:43:59;5.13;;;2.63;;
45356;SDS011;31092;51.924;21.448;2022-10-31T01:46:33;2.22;;;1.50;;
45356;SDS011;31092;51.924;21.448;2022-10-31T01:49:04;3.35;;;2.28;;
45356;SDS011;31092;51.924;21.448;2022-10-31T01:51:35;4.03;;;2.17;;
45356;SDS011;31092;51.924;21.448;2022-10-31T01:54:08;3.97;;;2.45;;
45356;SDS011;31092;51.924;21.448;2022-10-31T01:56:41;2.75;;;1.90;;
45356;SDS011;31092;51.924;21.448;2022-10-31T01:59:10;5.70;;;2.45;;
45356;SDS011;31092;51.924;21.448;2022-10-31T02:01:38;6.43;;;2.50;;
45356;SDS011;31092;51.924;21.448;2022-10-31T02:04:05;5.40;;;3.35;;
45356;SDS011;31092;51.924;21.448;2022-10-31T02:06:33;3.63;;;2.83;;
45356;SDS011;31092;51.924;21.448;2022-10-31T02:09:04;7.20;;;2.53;;
45356;SDS011;31092;51.924;21.448;2022-10-31T02:11:31;1.23;;;1.00;;
45356;SDS011;31092;51.924;21.448;2022-10-31T02:13:58;6.63;;;1.77;;
45356;SDS011;31092;51.924;21.448;2022-10-31T02:16:25;3.45;;;2.13;;
45356;SDS011;31092;51.924;21.448;2022-10-31T02:18:50;2.35;;;1.70;;
45356;SDS011;31092;51.924;21.448;2022-10-31T02:21:24;6.03;;;3.08;;
45356;SDS011;31092;51.924;21.448;2022-10-31T02:29:51;6.05;;;2.25;;
45356;SDS011;31092;51.924;21.448;2022-10-31T02:32:33;3.72;;;2.35;;
45356;SDS011;31092;51.924;21.448;2022-10-31T02:42:59;2.75;;;1.75;;
45356;SDS011;31092;51.924;21.448;2022-10-31T02:48:08;4.70;;;1.60;;
45356;SDS011;31092;51.924;21.448;2022-10-31T02:50:39;2.70;;;2.10;;
45356;SDS011;31092;51.924;21.448;2022-10-31T02:53:08;3.90;;;2.38;;
45356;SDS011;31092;51.924;21.448;2022-10-31T03:00:59;3.70;;;1.52;;
45356;SDS011;31092;51.924;21.448;2022-10-31T03:06:33;3.80;;;2.42;;
45356;SDS011;31092;51.924;21.448;2022-10-31T03:14:41;3.03;;;1.63;;
45356;SDS011;31092;51.924;21.448;2022-10-31T03:17:18;5.17;;;2.60;;
45356;SDS011;31092;51.924;21.448;2022-10-31T03:19:56;6.13;;;2.92;;
45356;SDS011;31092;51.924;21.448;2022-10-31T03:22:27;2.15;;;1.95;;
45356;SDS011;31092;51.924;21.448;2022-10-31T03:24:56;6.15;;;2.60;;
45356;SDS011;31092;51.924;21.448;2022-10-31T03:27:24;3.50;;;1.80;;
45356;SDS011;31092;51.924;21.448;2022-10-31T03:29:54;2.97;;;1.88;;
45356;SDS011;31092;51.924;21.448;2022-10-31T03:35:00;3.20;;;1.95;;
45356;SDS011;31092;51.924;21.448;2022-10-31T03:37:29;6.38;;;2.05;;
45356;SDS011;31092;51.924;21.448;2022-10-31T03:39:58;3.78;;;2.25;;
45356;SDS011;31092;51.924;21.448;2022-10-31T03:42:25;6.78;;;2.85;;
45356;SDS011;31092;51.924;21.448;2022-10-31T03:45:00;3.50;;;2.08;;
45356;SDS011;31092;51.924;21.448;2022-10-31T03:47:31;6.95;;;1.95;;
45356;SDS011;31092;51.924;21.448;2022-10-31T03:49:58;3.95;;;1.92;;
45356;SDS011;31092;51.924;21.448;2022-10-31T03:54:59;4.00;;;2.85;;
45356;SDS011;31092;51.924;21.448;2022-10-31T04:00:08;4.07;;;1.92;;
45356;SDS011;31092;51.924;21.448;2022-10-31T04:02:37;4.43;;;2.33;;
45356;SDS011;31092;51.924;21.448;2022-10-31T04:05:06;2.83;;;2.20;;
45356;SDS011;31092;51.924;21.448;2022-10-31T04:07:35;6.63;;;2.95;;
45356;SDS011;31092;51.924;21.448;2022-10-31T04:10:04;5.82;;;2.63;;
45356;SDS011;31092;51.924;21.448;2022-10-31T04:12:34;6.82;;;2.60;;
45356;SDS011;31092;51.924;21.448;2022-10-31T04:15:02;3.15;;;2.55;;
45356;SDS011;31092;51.924;21.448;2022-10-31T04:17:31;4.03;;;3.10;;
45356;SDS011;31092;51.924;21.448;2022-10-31T04:20:00;4.70;;;2.65;;
45356;SDS011;31092;51.924;21.448;2022-10-31T04:22:26;3.65;;;2.40;;
45356;SDS011;31092;51.924;21.448;2022-10-31T04:24:51;6.50;;;3.80;;
45356;SDS011;31092;51.924;21.448;2022-10-31T04:27:17;4.00;;;3.13;;
45356;SDS011;31092;51.924;21.448;2022-10-31T04:29:43;6.15;;;3.60;;
45356;SDS011;31092;51.924;21.448;2022-10-31T04:32:08;4.05;;;2.47;;
45356;SDS011;31092;51.924;21.448;2022-10-31T04:34:34;6.78;;;3.15;;
45356;SDS011;31092;51.924;21.448;2022-10-31T04:36:59;4.70;;;3.22;;
45356;SDS011;31092;51.924;21.448;2022-10-31T04:39:25;5.13;;;2.95;;
45356;SDS011;31092;51.924;21.448;2022-10-31T04:41:50;8.57;;;3.25;;
45356;SDS011;31092;51.924;21.448;2022-10-31T04:44:15;4.70;;;2.75;;
45356;SDS011;31092;51.924;21.448;2022-10-31T04:46:41;5.60;;;3.17;;
45356;SDS011;31092;51.924;21.448;2022-10-31T04:49:07;8.10;;;3.17;;
45356;SDS011;31092;51.924;21.448;2022-10-31T04:51:32;5.95;;;2.95;;
45356;SDS011;31092;51.924;21.448;2022-10-31T04:53:58;4.38;;;2.97;;
45356;SDS011;31092;51.924;21.448;2022-10-31T04:56:23;6.05;;;3.55;;
45356;SDS011;31092;51.924;21.448;2022-10-31T04:58:49;7.43;;;3.03;;
45356;SDS011;31092;51.924;21.448;2022-10-31T05:01:14;6.45;;;4.13;;
45356;SDS011;31092;51.924;21.448;2022-10-31T05:03:40;8.15;;;3.85;;
45356;SDS011;31092;51.924;21.448;2022-10-31T05:06:05;7.30;;;3.63;;
45356;SDS011;31092;51.924;21.448;2022-10-31T05:08:31;5.13;;;3.10;;
45356;SDS011;31092;51.924;21.448;2022-10-31T05:11:00;7.50;;;4.15;;
45356;SDS011;31092;51.924;21.448;2022-10-31T05:13:27;5.88;;;3.15;;
45356;SDS011;31092;51.924;21.448;2022-10-31T05:15:53;18.27;;;4.57;;
45356;SDS011;31092;51.924;21.448;2022-10-31T05:18:19;5.78;;;3.05;;
45356;SDS011;31092;51.924;21.448;2022-10-31T05:20:44;5.68;;;4.03;;
45356;SDS011;31092;51.924;21.448;2022-10-31T05:23:10;8.40;;;4.60;;
45356;SDS011;31092;51.924;21.448;2022-10-31T05:25:35;8.80;;;4.10;;
45356;SDS011;31092;51.924;21.448;2022-10-31T05:28:01;4.80;;;3.38;;
45356;SDS011;31092;51.924;21.448;2022-10-31T05:30:27;3.40;;;2.60;;
45356;SDS011;31092;51.924;21.448;2022-10-31T05:32:54;4.55;;;2.95;;
45356;SDS011;31092;51.924;21.448;2022-10-31T05:35:21;4.75;;;3.05;;
45356;SDS011;31092;51.924;21.448;2022-10-31T05:37:48;7.95;;;3.97;;
45356;SDS011;31092;51.924;21.448;2022-10-31T05:40:15;3.60;;;2.35;;
45356;SDS011;31092;51.924;21.448;2022-10-31T05:42:42;5.32;;;2.58;;
45356;SDS011;31092;51.924;21.448;2022-10-31T05:45:09;3.08;;;2.45;;
45356;SDS011;31092;51.924;21.448;2022-10-31T05:47:36;6.60;;;3.83;;
45356;SDS011;31092;51.924;21.448;2022-10-31T05:50:02;8.57;;;3.92;;
45356;SDS011;31092;51.924;21.448;2022-10-31T05:52:28;4.93;;;2.92;;
45356;SDS011;31092;51.924;21.448;2022-10-31T05:54:54;8.43;;;3.42;;
45356;SDS011;31092;51.924;21.448;2022-10-31T05:57:19;4.38;;;2.95;;
45356;SDS011;31092;51.924;21.448;2022-10-31T05:59:45;6.38;;;4.45;;
45356;SDS011;31092;51.924;21.448;2022-10-31T06:02:10;8.52;;;4.22;;
45356;SDS011;31092;51.924;21.448;2022-10-31T06:04:35;6.13;;;3.63;;
45356;SDS011;31092;51.924;21.448;2022-10-31T06:07:01;5.70;;;3.90;;
45356;SDS011;31092;51.924;21.448;2022-10-31T06:09:26;11.30;;;3.47;;
45356;SDS011;31092;51.924;21.448;2022-10-31T06:11:52;5.38;;;3.35;;
45356;SDS011;31092;51.924;21.448;2022-10-31T06:14:17;6.05;;;4.05;;
45356;SDS011;31092;51.924;21.448;2022-10-31T06:16:43;9.32;;;6.15;;
45356;SDS011;31092;51.924;21.448;2022-10-31T06:19:08;6.20;;;4.10;;
45356;SDS011;31092;51.924;21.448;2022-10-31T06:21:34;5.75;;;3.33;;
45356;SDS011;31092;51.924;21.448;2022-10-31T06:23:59;7.65;;;3.72;;
45356;SDS011;31092;51.924;21.448;2022-10-31T06:26:25;6.22;;;3.63;;
45356;SDS011;31092;51.924;21.448;2022-10-31T06:28:50;7.68;;;5.25;;
45356;SDS011;31092;51.924;21.448;2022-10-31T06:31:15;7.50;;;3.80;;
45356;SDS011;31092;51.924;21.448;2022-10-31T06:33:41;13.88;;;4.65;;
45356;SDS011;31092;51.924;21.448;2022-10-31T06:36:08;7.47;;;4.28;;
45356;SDS011;31092;51.924;21.448;2022-10-31T06:38:34;9.48;;;4.38;;
45356;SDS011;31092;51.924;21.448;2022-10-31T06:41:03;8.07;;;4.40;;
45356;SDS011;31092;51.924;21.448;2022-10-31T06:43:29;9.57;;;4.90;;
45356;SDS011;31092;51.924;21.448;2022-10-31T06:45:55;12.88;;;4.45;;
45356;SDS011;31092;51.924;21.448;2022-10-31T06:48:21;11.48;;;5.90;;
45356;SDS011;31092;51.924;21.448;2022-10-31T06:50:46;6.35;;;4.75;;
45356;SDS011;31092;51.924;21.448;2022-10-31T06:53:12;10.35;;;4.45;;
45356;SDS011;31092;51.924;21.448;2022-10-31T06:55:39;10.07;;;4.15;;
45356;SDS011;31092;51.924;21.448;2022-10-31T06:58:05;7.40;;;4.22;;
45356;SDS011;31092;51.924;21.448;2022-10-31T07:00:30;18.48;;;6.20;;
45356;SDS011;31092;51.924;21.448;2022-10-31T07:03:06;7.28;;;5.00;;
45356;SDS011;31092;51.924;21.448;2022-10-31T07:05:35;12.30;;;4.75;;
45356;SDS011;31092;51.924;21.448;2022-10-31T07:08:02;7.68;;;5.32;;
45356;SDS011;31092;51.924;21.448;2022-10-31T07:10:30;8.43;;;5.22;;
45356;SDS011;31092;51.924;21.448;2022-10-31T07:12:58;14.02;;;5.47;;
45356;SDS011;31092;51.924;21.448;2022-10-31T07:15:25;10.35;;;4.40;;
45356;SDS011;31092;51.924;21.448;2022-10-31T07:17:52;6.40;;;3.90;;
45356;SDS011;31092;51.924;21.448;2022-10-31T07:20:17;6.93;;;4.63;;
45356;SDS011;31092;51.924;21.448;2022-10-31T07:22:43;11.02;;;5.85;;
45356;SDS011;31092;51.924;21.448;2022-10-31T07:25:09;8.43;;;4.50;;
45356;SDS011;31092;51.924;21.448;2022-10-31T07:27:36;9.38;;;4.65;;
45356;SDS011;31092;51.924;21.448;2022-10-31T07:30:05;8.20;;;4.78;;
45356;SDS011;31092;51.924;21.448;2022-10-31T07:32:39;5.60;;;3.53;;
45356;SDS011;31092;51.924;21.448;2022-10-31T07:35:06;5.18;;;4.65;;
45356;SDS011;31092;51.924;21.448;2022-10-31T07:37:32;8.00;;;4.40;;
45356;SDS011;31092;51.924;21.448;2022-10-31T07:39:58;9.45;;;3.95;;
45356;SDS011;31092;51.924;21.448;2022-10-31T07:42:23;7.10;;;3.83;;
45356;SDS011;31092;51.924;21.448;2022-10-31T07:44:49;6.05;;;4.47;;
45356;SDS011;31092;51.924;21.448;2022-10-31T07:47:14;6.20;;;4.13;;
45356;SDS011;31092;51.924;21.448;2022-10-31T07:49:40;7.35;;;4.65;;
45356;SDS011;31092;51.924;21.448;2022-10-31T07:52:05;9.43;;;3.60;;
45356;SDS011;31092;51.924;21.448;2022-10-31T07:54:31;4.22;;;3.00;;
45356;SDS011;31092;51.924;21.448;2022-10-31T07:56:56;6.43;;;3.83;;
45356;SDS011;31092;51.924;21.448;2022-10-31T07:59:24;12.55;;;3.50;;
45356;SDS011;31092;51.924;21.448;2022-10-31T08:01:50;6.65;;;3.83;;
45356;SDS011;31092;51.924;21.448;2022-10-31T08:04:16;6.30;;;3.00;;
45356;SDS011;31092;51.924;21.448;2022-10-31T08:06:41;4.85;;;2.63;;
45356;SDS011;31092;51.924;21.448;2022-10-31T08:09:07;7.32;;;4.10;;
45356;SDS011;31092;51.924;21.448;2022-10-31T08:11:32;5.15;;;3.63;;
45356;SDS011;31092;51.924;21.448;2022-10-31T08:13:58;6.95;;;3.28;;
45356;SDS011;31092;51.924;21.448;2022-10-31T08:16:23;8.15;;;4.63;;
45356;SDS011;31092;51.924;21.448;2022-10-31T08:18:49;12.00;;;3.85;;
45356;SDS011;31092;51.924;21.448;2022-10-31T08:21:14;7.22;;;5.18;;
45356;SDS011;31092;51.924;21.448;2022-10-31T08:23:40;7.93;;;4.88;;
45356;SDS011;31092;51.924;21.448;2022-10-31T08:26:05;7.28;;;3.72;;
45356;SDS011;31092;51.924;21.448;2022-10-31T08:28:31;6.70;;;3.60;;
45356;SDS011;31092;51.924;21.448;2022-10-31T08:30:57;7.63;;;3.95;;
45356;SDS011;31092;51.924;21.448;2022-10-31T08:33:23;4.18;;;3.17;;
45356;SDS011;31092;51.924;21.448;2022-10-31T08:35:48;6.00;;;3.55;;
45356;SDS011;31092;51.924;21.448;2022-10-31T08:38:14;5.60;;;3.25;;
45356;SDS011;31092;51.924;21.448;2022-10-31T08:40:40;4.82;;;3.22;;
45356;SDS011;31092;51.924;21.448;2022-10-31T08:43:10;5.15;;;3.92;;
45356;SDS011;31092;51.924;21.448;2022-10-31T08:45:37;7.43;;;3.75;;
45356;SDS011;31092;51.924;21.448;2022-10-31T08:48:04;5.00;;;3.10;;
45356;SDS011;31092;51.924;21.448;2022-10-31T08:50:31;5.88;;;3.90;;
45356;SDS011;31092;51.924;21.448;2022-10-31T08:53:04;6.93;;;3.28;;
45356;SDS011;31092;51.924;21.448;2022-10-31T08:55:43;5.75;;;3.78;;
45356;SDS011;31092;51.924;21.448;2022-10-31T08:58:18;7.53;;;2.97;;
45356;SDS011;31092;51.924;21.448;2022-10-31T09:00:45;8.95;;;4.07;;
45356;SDS011;31092;51.924;21.448;2022-10-31T09:03:13;4.97;;;3.55;;
45356;SDS011;31092;51.924;21.448;2022-10-31T09:05:43;7.10;;;4.65;;
45356;SDS011;31092;51.924;21.448;2022-10-31T09:08:08;6.22;;;3.85;;
45356;SDS011;31092;51.924;21.448;2022-10-31T09:10:35;5.13;;;3.63;;
45356;SDS011;31092;51.924;21.448;2022-10-31T09:13:03;6.13;;;3.95;;
45356;SDS011;31092;51.924;21.448;2022-10-31T09:15:35;6.15;;;4.05;;
45356;SDS011;31092;51.924;21.448;2022-10-31T09:18:03;4.57;;;2.85;;
45356;SDS011;31092;51.924;21.448;2022-10-31T09:20:30;6.90;;;5.63;;
45356;SDS011;31092;51.924;21.448;2022-10-31T09:22:58;5.35;;;3.63;;
45356;SDS011;31092;51.924;21.448;2022-10-31T09:25:24;6.13;;;3.78;;
45356;SDS011;31092;51.924;21.448;2022-10-31T09:27:50;6.45;;;3.65;;
45356;SDS011;31092;51.924;21.448;2022-10-31T09:30:16;6.25;;;4.05;;
45356;SDS011;31092;51.924;21.448;2022-10-31T09:32:42;7.60;;;4.70;;
45356;SDS011;31092;51.924;21.448;2022-10-31T09:35:07;7.78;;;3.95;;
45356;SDS011;31092;51.924;21.448;2022-10-31T09:37:33;6.00;;;3.30;;
45356;SDS011;31092;51.924;21.448;2022-10-31T09:39:58;6.65;;;3.67;;
45356;SDS011;31092;51.924;21.448;2022-10-31T09:45:03;5.95;;;3.90;;
45356;SDS011;31092;51.924;21.448;2022-10-31T09:50:20;4.90;;;3.70;;
45356;SDS011;31092;51.924;21.448;2022-10-31T09:55:48;5.93;;;3.50;;
45356;SDS011;31092;51.924;21.448;2022-10-31T09:58:28;8.07;;;3.72;;
45356;SDS011;31092;51.924;21.448;2022-10-31T10:00:58;4.80;;;3.45;;
45356;SDS011;31092;51.924;21.448;2022-10-31T10:06:23;5.53;;;3.08;;
45356;SDS011;31092;51.924;21.448;2022-10-31T10:08:52;3.60;;;3.25;;
45356;SDS011;31092;51.924;21.448;2022-10-31T10:22:26;4.50;;;2.47;;
45356;SDS011;31092;51.924;21.448;2022-10-31T10:28:06;8.15;;;3.22;;
45356;SDS011;31092;51.924;21.448;2022-10-31T10:33:22;3.67;;;2.50;;
45356;SDS011;31092;51.924;21.448;2022-10-31T10:36:00;3.35;;;2.47;;
45356;SDS011;31092;51.924;21.448;2022-10-31T10:38:34;3.78;;;2.42;;
45356;SDS011;31092;51.924;21.448;2022-10-31T10:41:16;3.15;;;2.28;;
45356;SDS011;31092;51.924;21.448;2022-10-31T10:43:43;4.93;;;2.50;;
45356;SDS011;31092;51.924;21.448;2022-10-31T11:00:27;2.22;;;2.03;;
45356;SDS011;31092;51.924;21.448;2022-10-31T11:02:56;3.03;;;2.72;;
45356;SDS011;31092;51.924;21.448;2022-10-31T11:08:07;5.70;;;2.15;;
45356;SDS011;31092;51.924;21.448;2022-10-31T11:10:33;3.55;;;2.60;;
45356;SDS011;31092;51.924;21.448;2022-10-31T11:13:03;3.38;;;1.98;;
45356;SDS011;31092;51.924;21.448;2022-10-31T11:15:34;2.78;;;2.30;;
45356;SDS011;31092;51.924;21.448;2022-10-31T11:18:03;3.35;;;2.55;;
45356;SDS011;31092;51.924;21.448;2022-10-31T11:20:31;4.22;;;2.85;;
45356;SDS011;31092;51.924;21.448;2022-10-31T11:23:04;6.32;;;2.58;;
45356;SDS011;31092;51.924;21.448;2022-10-31T11:25:47;3.97;;;2.80;;
45356;SDS011;31092;51.924;21.448;2022-10-31T11:28:17;7.07;;;2.67;;
45356;SDS011;31092;51.924;21.448;2022-10-31T11:31:28;5.85;;;3.15;;
45356;SDS011;31092;51.924;21.448;2022-10-31T11:36:13;4.80;;;3.45;;
45356;SDS011;31092;51.924;21.448;2022-10-31T11:38:46;4.53;;;2.80;;
45356;SDS011;31092;51.924;21.448;2022-10-31T11:41:13;4.90;;;3.20;;
45356;SDS011;31092;51.924;21.448;2022-10-31T11:43:46;3.90;;;2.60;;
45356;SDS011;31092;51.924;21.448;2022-10-31T11:48:59;5.50;;;3.53;;
45356;SDS011;31092;51.924;21.448;2022-10-31T11:51:27;6.93;;;3.05;;
45356;SDS011;31092;51.924;21.448;2022-10-31T11:53:57;4.88;;;2.55;;
45356;SDS011;31092;51.924;21.448;2022-10-31T11:56:24;2.85;;;2.55;;
45356;SDS011;31092;51.924;21.448;2022-10-31T11:58:56;4.43;;;2.30;;
45356;SDS011;31092;51.924;21.448;2022-10-31T12:01:27;3.03;;;2.60;;
45356;SDS011;31092;51.924;21.448;2022-10-31T12:03:58;6.28;;;3.28;;
45356;SDS011;31092;51.924;21.448;2022-10-31T12:06:29;4.28;;;2.85;;
45356;SDS011;31092;51.924;21.448;2022-10-31T12:08:59;3.08;;;2.15;;
45356;SDS011;31092;51.924;21.448;2022-10-31T12:11:37;2.22;;;1.85;;
45356;SDS011;31092;51.924;21.448;2022-10-31T12:35:20;5.72;;;2.78;;
45356;SDS011;31092;51.924;21.448;2022-10-31T12:38:11;3.13;;;1.80;;
45356;SDS011;31092;51.924;21.448;2022-10-31T12:40:48;4.68;;;3.33;;
45356;SDS011;31092;51.924;21.448;2022-10-31T12:43:36;8.57;;;2.85;;
45356;SDS011;31092;51.924;21.448;2022-10-31T12:46:20;6.32;;;2.25;;
45356;SDS011;31092;51.924;21.448;2022-10-31T12:51:37;3.03;;;2.50;;
45356;SDS011;31092;51.924;21.448;2022-10-31T12:54:18;3.47;;;2.13;;
45356;SDS011;31092;51.924;21.448;2022-10-31T12:57:26;4.88;;;2.90;;
45356;SDS011;31092;51.924;21.448;2022-10-31T13:00:00;4.30;;;2.58;;
45356;SDS011;31092;51.924;21.448;2022-10-31T13:05:05;5.53;;;4.28;;
45356;SDS011;31092;51.924;21.448;2022-10-31T13:08:01;6.17;;;4.00;;
45356;SDS011;31092;51.924;21.448;2022-10-31T13:15:55;8.00;;;4.07;;
45356;SDS011;31092;51.924;21.448;2022-10-31T13:18:33;9.43;;;4.47;;
45356;SDS011;31092;51.924;21.448;2022-10-31T13:21:08;6.72;;;4.13;;
45356;SDS011;31092;51.924;21.448;2022-10-31T13:23:41;5.85;;;4.38;;
45356;SDS011;31092;51.924;21.448;2022-10-31T13:26:54;8.27;;;4.25;;
45356;SDS011;31092;51.924;21.448;2022-10-31T13:31:34;5.22;;;3.38;;
45356;SDS011;31092;51.924;21.448;2022-10-31T13:34:01;7.18;;;3.63;;
45356;SDS011;31092;51.924;21.448;2022-10-31T13:36:48;5.97;;;4.28;;
45356;SDS011;31092;51.924;21.448;2022-10-31T13:42:13;7.57;;;3.25;;
45356;SDS011;31092;51.924;21.448;2022-10-31T13:44:47;6.40;;;3.80;;
45356;SDS011;31092;51.924;21.448;2022-10-31T13:47:26;7.40;;;4.88;;
45356;SDS011;31092;51.924;21.448;2022-10-31T13:50:14;7.85;;;4.25;;
45356;SDS011;31092;51.924;21.448;2022-10-31T13:52:46;5.80;;;3.75;;
45356;SDS011;31092;51.924;21.448;2022-10-31T13:56:01;8.40;;;4.05;;
45356;SDS011;31092;51.924;21.448;2022-10-31T14:03:40;6.35;;;3.97;;
45356;SDS011;31092;51.924;21.448;2022-10-31T14:06:08;5.65;;;2.97;;
45356;SDS011;31092;51.924;21.448;2022-10-31T14:08:36;5.90;;;4.05;;
45356;SDS011;31092;51.924;21.448;2022-10-31T14:11:06;5.28;;;3.55;;
45356;SDS011;31092;51.924;21.448;2022-10-31T14:13:52;6.63;;;3.58;;
45356;SDS011;31092;51.924;21.448;2022-10-31T14:16:25;6.10;;;4.00;;
45356;SDS011;31092;51.924;21.448;2022-10-31T14:18:59;6.88;;;3.70;;
45356;SDS011;31092;51.924;21.448;2022-10-31T14:21:37;5.72;;;3.90;;
45356;SDS011;31092;51.924;21.448;2022-10-31T14:24:16;9.68;;;4.93;;
45356;SDS011;31092;51.924;21.448;2022-10-31T14:26:58;5.38;;;3.97;;
45356;SDS011;31092;51.924;21.448;2022-10-31T14:29:26;7.75;;;4.50;;
45356;SDS011;31092;51.924;21.448;2022-10-31T14:37:08;5.07;;;3.50;;
45356;SDS011;31092;51.924;21.448;2022-10-31T14:42:36;5.82;;;3.80;;
45356;SDS011;31092;51.924;21.448;2022-10-31T14:48:13;7.22;;;4.95;;
45356;SDS011;31092;51.924;21.448;2022-10-31T14:50:50;14.18;;;6.88;;
45356;SDS011;31092;51.924;21.448;2022-10-31T14:53:29;15.77;;;8.02;;
45356;SDS011;31092;51.924;21.448;2022-10-31T14:55:58;15.52;;;6.50;;
45356;SDS011;31092;51.924;21.448;2022-10-31T14:58:28;9.93;;;5.43;;
45356;SDS011;31092;51.924;21.448;2022-10-31T15:01:06;13.48;;;7.07;;
45356;SDS011;31092;51.924;21.448;2022-10-31T15:03:36;13.65;;;5.95;;
45356;SDS011;31092;51.924;21.448;2022-10-31T15:06:15;10.77;;;5.68;;
45356;SDS011;31092;51.924;21.448;2022-10-31T15:08:51;13.05;;;5.95;;
45356;SDS011;31092;51.924;21.448;2022-10-31T15:11:28;8.27;;;4.80;;
45356;SDS011;31092;51.924;21.448;2022-10-31T15:14:05;5.40;;;3.08;;
45356;SDS011;31092;51.924;21.448;2022-10-31T15:16:47;8.85;;;5.03;;
45356;SDS011;31092;51.924;21.448;2022-10-31T15:19:15;7.93;;;3.25;;
45356;SDS011;31092;51.924;21.448;2022-10-31T15:21:49;6.88;;;3.55;;
45356;SDS011;31092;51.924;21.448;2022-10-31T15:24:16;6.65;;;4.13;;
45356;SDS011;31092;51.924;21.448;2022-10-31T15:27:02;8.57;;;4.93;;
45356;SDS011;31092;51.924;21.448;2022-10-31T15:29:31;7.88;;;5.10;;
45356;SDS011;31092;51.924;21.448;2022-10-31T15:31:57;7.22;;;4.72;;
45356;SDS011;31092;51.924;21.448;2022-10-31T15:37:21;9.20;;;5.03;;
45356;SDS011;31092;51.924;21.448;2022-10-31T15:39:50;7.72;;;4.85;;
45356;SDS011;31092;51.924;21.448;2022-10-31T15:42:20;8.63;;;5.18;;
45356;SDS011;31092;51.924;21.448;2022-10-31T15:45:02;11.82;;;5.78;;
45356;SDS011;31092;51.924;21.448;2022-10-31T15:47:45;10.95;;;5.32;;
45356;SDS011;31092;51.924;21.448;2022-10-31T15:53:02;5.82;;;3.67;;
45356;SDS011;31092;51.924;21.448;2022-10-31T15:55:30;6.97;;;4.82;;
45356;SDS011;31092;51.924;21.448;2022-10-31T15:58:02;12.10;;;4.18;;
45356;SDS011;31092;51.924;21.448;2022-10-31T16:00:36;5.47;;;3.63;;
45356;SDS011;31092;51.924;21.448;2022-10-31T16:05:44;14.80;;;7.15;;
45356;SDS011;31092;51.924;21.448;2022-10-31T16:13:36;23.77;;;7.60;;
45356;SDS011;31092;51.924;21.448;2022-10-31T16:16:11;20.23;;;7.05;;
45356;SDS011;31092;51.924;21.448;2022-10-31T16:18:40;14.77;;;6.93;;
45356;SDS011;31092;51.924;21.448;2022-10-31T16:21:06;23.98;;;7.45;;
45356;SDS011;31092;51.924;21.448;2022-10-31T16:23:34;18.45;;;6.68;;
45356;SDS011;31092;51.924;21.448;2022-10-31T16:26:07;15.93;;;7.82;;
45356;SDS011;31092;51.924;21.448;2022-10-31T16:28:33;22.20;;;7.65;;
45356;SDS011;31092;51.924;21.448;2022-10-31T16:31:00;22.55;;;7.05;;
45356;SDS011;31092;51.924;21.448;2022-10-31T16:36:00;16.88;;;7.60;;
45356;SDS011;31092;51.924;21.448;2022-10-31T16:38:46;18.30;;;6.88;;
45356;SDS011;31092;51.924;21.448;2022-10-31T16:41:12;17.00;;;8.45;;
45356;SDS011;31092;51.924;21.448;2022-10-31T16:43:37;17.25;;;7.38;;
45356;SDS011;31092;51.924;21.448;2022-10-31T16:46:03;14.38;;;6.93;;
45356;SDS011;31092;51.924;21.448;2022-10-31T16:48:28;18.13;;;7.38;;
45356;SDS011;31092;51.924;21.448;2022-10-31T16:50:55;13.20;;;5.93;;
45356;SDS011;31092;51.924;21.448;2022-10-31T16:53:21;14.40;;;6.97;;
45356;SDS011;31092;51.924;21.448;2022-10-31T16:58:24;14.98;;;6.75;;
45356;SDS011;31092;51.924;21.448;2022-10-31T17:00:52;16.50;;;6.90;;
45356;SDS011;31092;51.924;21.448;2022-10-31T17:03:18;17.27;;;8.00;;
45356;SDS011;31092;51.924;21.448;2022-10-31T17:05:44;21.27;;;7.93;;
45356;SDS011;31092;51.924;21.448;2022-10-31T17:08:10;17.27;;;7.07;;
45356;SDS011;31092;51.924;21.448;2022-10-31T17:10:37;16.15;;;7.95;;
45356;SDS011;31092;51.924;21.448;2022-10-31T17:13:06;16.17;;;7.70;;
45356;SDS011;31092;51.924;21.448;2022-10-31T17:15:43;15.80;;;7.80;;
45356;SDS011;31092;51.924;21.448;2022-10-31T17:18:11;17.08;;;6.18;;
45356;SDS011;31092;51.924;21.448;2022-10-31T17:20:38;19.67;;;8.10;;
45356;SDS011;31092;51.924;21.448;2022-10-31T17:23:04;16.42;;;7.97;;
45356;SDS011;31092;51.924;21.448;2022-10-31T17:25:29;22.92;;;10.18;;
45356;SDS011;31092;51.924;21.448;2022-10-31T17:27:58;16.73;;;8.52;;